<?xml version="1.0" encoding="UTF-8" standalone="no" ?>
<gpx xmlns="http://www.topografix.com/GPX/1/1" xmlns:xsi="http://www.w3.org/2001/XMLSchema-instance" xsi:schemaLocation="http://www.topografix.com/GPX/1/1 http://www.topografix.com/GPX/1/1/gpx.xsd" version="1.1" creator="VisuGPX - https://www.visugpx.com">
  <metadata>
    <name>Etang du Corra</name>
  </metadata>
  <trk>
    <name><![CDATA[Randonnée du 06/11/2021 à 22:18]]></name>
    <trkseg>
      <trkpt lat="48.97675" lon="2.08892">
        <ele>25</ele>
        <time>2021-11-06T22:18:52+01:00</time>
      </trkpt>
      <trkpt lat="48.97623" lon="2.08923">
        <ele>27</ele>
        <time>2021-11-06T22:18:57+01:00</time>
      </trkpt>
      <trkpt lat="48.97618" lon="2.08954">
        <ele>26</ele>
        <time>2021-11-06T22:19:02+01:00</time>
      </trkpt>
      <trkpt lat="48.9757" lon="2.08979">
        <ele>28</ele>
        <time>2021-11-06T22:19:07+01:00</time>
      </trkpt>
      <trkpt lat="48.97545" lon="2.09016">
        <ele>27</ele>
        <time>2021-11-06T22:19:12+01:00</time>
      </trkpt>
      <trkpt lat="48.97503" lon="2.09032">
        <ele>28</ele>
        <time>2021-11-06T22:19:17+01:00</time>
      </trkpt>
      <trkpt lat="48.97482" lon="2.09111">
        <ele>27</ele>
        <time>2021-11-06T22:19:22+01:00</time>
      </trkpt>
      <trkpt lat="48.97484" lon="2.09198">
        <ele>26</ele>
        <time>2021-11-06T22:19:27+01:00</time>
      </trkpt>
      <trkpt lat="48.97473" lon="2.09243">
        <ele>27</ele>
        <time>2021-11-06T22:19:32+01:00</time>
      </trkpt>
      <trkpt lat="48.97547" lon="2.09539">
        <ele>26</ele>
        <time>2021-11-06T22:19:37+01:00</time>
      </trkpt>
      <trkpt lat="48.9763" lon="2.09682">
        <ele>27</ele>
        <time>2021-11-06T22:19:42+01:00</time>
      </trkpt>
      <trkpt lat="48.9755" lon="2.10069">
        <ele>35</ele>
        <time>2021-11-06T22:19:47+01:00</time>
      </trkpt>
      <trkpt lat="48.97213" lon="2.09418">
        <ele>45</ele>
        <time>2021-11-06T22:19:52+01:00</time>
      </trkpt>
      <trkpt lat="48.96942" lon="2.09319">
        <ele>44</ele>
        <time>2021-11-06T22:19:57+01:00</time>
      </trkpt>
      <trkpt lat="48.96913" lon="2.09436">
        <ele>46</ele>
        <time>2021-11-06T22:20:02+01:00</time>
      </trkpt>
      <trkpt lat="48.96905" lon="2.09999">
        <ele>49</ele>
        <time>2021-11-06T22:20:07+01:00</time>
      </trkpt>
      <trkpt lat="48.96797" lon="2.09976">
        <ele>50</ele>
        <time>2021-11-06T22:20:12+01:00</time>
      </trkpt>
      <trkpt lat="48.96462" lon="2.09546">
        <ele>46</ele>
        <time>2021-11-06T22:20:17+01:00</time>
      </trkpt>
      <trkpt lat="48.96587" lon="2.10247">
        <ele>48</ele>
        <time>2021-11-06T22:20:22+01:00</time>
      </trkpt>
      <trkpt lat="48.96427" lon="2.10469">
        <ele>52</ele>
        <time>2021-11-06T22:20:27+01:00</time>
      </trkpt>
      <trkpt lat="48.96652" lon="2.10644">
        <ele>49</ele>
        <time>2021-11-06T22:20:32+01:00</time>
      </trkpt>
      <trkpt lat="48.96421" lon="2.10684">
        <ele>53</ele>
        <time>2021-11-06T22:20:37+01:00</time>
      </trkpt>
      <trkpt lat="48.9635" lon="2.10934">
        <ele>49</ele>
        <time>2021-11-06T22:20:42+01:00</time>
      </trkpt>
      <trkpt lat="48.96566" lon="2.11064">
        <ele>49</ele>
        <time>2021-11-06T22:20:47+01:00</time>
      </trkpt>
      <trkpt lat="48.96416" lon="2.11166">
        <ele>48</ele>
        <time>2021-11-06T22:20:52+01:00</time>
      </trkpt>
      <trkpt lat="48.96497" lon="2.11405">
        <ele>55</ele>
        <time>2021-11-06T22:20:57+01:00</time>
      </trkpt>
      <trkpt lat="48.96441" lon="2.11637">
        <ele>54</ele>
        <time>2021-11-06T22:21:02+01:00</time>
      </trkpt>
      <trkpt lat="48.96375" lon="2.11647">
        <ele>55</ele>
        <time>2021-11-06T22:21:07+01:00</time>
      </trkpt>
      <trkpt lat="48.96359" lon="2.11735">
        <ele>56</ele>
        <time>2021-11-06T22:21:12+01:00</time>
      </trkpt>
      <trkpt lat="48.96374" lon="2.11804">
        <ele>56</ele>
        <time>2021-11-06T22:21:17+01:00</time>
      </trkpt>
      <trkpt lat="48.96393" lon="2.11842">
        <ele>56</ele>
        <time>2021-11-06T22:21:22+01:00</time>
      </trkpt>
      <trkpt lat="48.96446" lon="2.11836">
        <ele>55</ele>
        <time>2021-11-06T22:21:27+01:00</time>
      </trkpt>
      <trkpt lat="48.96765" lon="2.12623">
        <ele>41</ele>
        <time>2021-11-06T22:21:32+01:00</time>
      </trkpt>
      <trkpt lat="48.96788" lon="2.12695">
        <ele>41</ele>
        <time>2021-11-06T22:21:37+01:00</time>
      </trkpt>
      <trkpt lat="48.97119" lon="2.13466">
        <ele>39</ele>
        <time>2021-11-06T22:21:42+01:00</time>
      </trkpt>
      <trkpt lat="48.97223" lon="2.13743">
        <ele>39</ele>
        <time>2021-11-06T22:21:47+01:00</time>
      </trkpt>
      <trkpt lat="48.97389" lon="2.14146">
        <ele>37</ele>
        <time>2021-11-06T22:21:52+01:00</time>
      </trkpt>
      <trkpt lat="48.97385" lon="2.14332">
        <ele>38</ele>
        <time>2021-11-06T22:21:57+01:00</time>
      </trkpt>
      <trkpt lat="48.97615" lon="2.13821">
        <ele>38</ele>
        <time>2021-11-06T22:22:02+01:00</time>
      </trkpt>
      <trkpt lat="48.98021" lon="2.12929">
        <ele>33</ele>
        <time>2021-11-06T22:22:07+01:00</time>
      </trkpt>
      <trkpt lat="48.97768" lon="2.12665">
        <ele>34</ele>
        <time>2021-11-06T22:22:12+01:00</time>
      </trkpt>
      <trkpt lat="48.97365" lon="2.13462">
        <ele>38</ele>
        <time>2021-11-06T22:22:17+01:00</time>
      </trkpt>
      <trkpt lat="48.97189" lon="2.13198">
        <ele>37</ele>
        <time>2021-11-06T22:22:22+01:00</time>
      </trkpt>
      <trkpt lat="48.96847" lon="2.12601">
        <ele>39</ele>
        <time>2021-11-06T22:22:27+01:00</time>
      </trkpt>
      <trkpt lat="48.97182" lon="2.12034">
        <ele>35</ele>
        <time>2021-11-06T22:22:32+01:00</time>
      </trkpt>
      <trkpt lat="48.97485" lon="2.10513">
        <ele>34</ele>
        <time>2021-11-06T22:22:37+01:00</time>
      </trkpt>
      <trkpt lat="48.97548" lon="2.10082">
        <ele>35</ele>
        <time>2021-11-06T22:22:42+01:00</time>
      </trkpt>
      <trkpt lat="48.97585" lon="2.09916">
        <ele>31</ele>
        <time>2021-11-06T22:22:47+01:00</time>
      </trkpt>
      <trkpt lat="48.9771" lon="2.09977">
        <ele>30</ele>
        <time>2021-11-06T22:22:52+01:00</time>
      </trkpt>
      <trkpt lat="48.97739" lon="2.09968">
        <ele>28</ele>
        <time>2021-11-06T22:22:57+01:00</time>
      </trkpt>
      <trkpt lat="48.97764" lon="2.0991">
        <ele>24</ele>
        <time>2021-11-06T22:23:02+01:00</time>
      </trkpt>
      <trkpt lat="48.97778" lon="2.0979">
        <ele>23</ele>
        <time>2021-11-06T22:23:07+01:00</time>
      </trkpt>
      <trkpt lat="48.97795" lon="2.09726">
        <ele>24</ele>
        <time>2021-11-06T22:23:12+01:00</time>
      </trkpt>
      <trkpt lat="48.9781" lon="2.0963">
        <ele>25</ele>
        <time>2021-11-06T22:23:17+01:00</time>
      </trkpt>
      <trkpt lat="48.97814" lon="2.09603">
        <ele>25</ele>
        <time>2021-11-06T22:23:22+01:00</time>
      </trkpt>
      <trkpt lat="48.97814" lon="2.09521">
        <ele>25</ele>
        <time>2021-11-06T22:23:27+01:00</time>
      </trkpt>
      <trkpt lat="48.97813" lon="2.09462">
        <ele>26</ele>
        <time>2021-11-06T22:23:32+01:00</time>
      </trkpt>
      <trkpt lat="48.97798" lon="2.094">
        <ele>26</ele>
        <time>2021-11-06T22:23:37+01:00</time>
      </trkpt>
      <trkpt lat="48.97786" lon="2.09321">
        <ele>25</ele>
        <time>2021-11-06T22:23:42+01:00</time>
      </trkpt>
      <trkpt lat="48.9779" lon="2.09265">
        <ele>25</ele>
        <time>2021-11-06T22:23:47+01:00</time>
      </trkpt>
      <trkpt lat="48.97801" lon="2.0924">
        <ele>25</ele>
        <time>2021-11-06T22:23:52+01:00</time>
      </trkpt>
      <trkpt lat="48.97846" lon="2.09153">
        <ele>26</ele>
        <time>2021-11-06T22:23:57+01:00</time>
      </trkpt>
      <trkpt lat="48.97861" lon="2.09103">
        <ele>26</ele>
        <time>2021-11-06T22:24:02+01:00</time>
      </trkpt>
      <trkpt lat="48.97869" lon="2.09065">
        <ele>25</ele>
        <time>2021-11-06T22:24:07+01:00</time>
      </trkpt>
      <trkpt lat="48.97871" lon="2.09021">
        <ele>25</ele>
        <time>2021-11-06T22:24:12+01:00</time>
      </trkpt>
      <trkpt lat="48.97852" lon="2.08979">
        <ele>25</ele>
        <time>2021-11-06T22:24:17+01:00</time>
      </trkpt>
      <trkpt lat="48.97829" lon="2.08969">
        <ele>25</ele>
        <time>2021-11-06T22:24:22+01:00</time>
      </trkpt>
      <trkpt lat="48.978" lon="2.08957">
        <ele>25</ele>
        <time>2021-11-06T22:24:27+01:00</time>
      </trkpt>
      <trkpt lat="48.97776" lon="2.08938">
        <ele>25</ele>
        <time>2021-11-06T22:24:32+01:00</time>
      </trkpt>
      <trkpt lat="48.97759" lon="2.08896">
        <ele>25</ele>
        <time>2021-11-06T22:24:37+01:00</time>
      </trkpt>
      <trkpt lat="48.9772" lon="2.08886">
        <ele>24</ele>
        <time>2021-11-06T22:24:42+01:00</time>
      </trkpt>
      <trkpt lat="48.97678" lon="2.08889">
        <ele>25</ele>
        <time>2021-11-06T22:24:47+01:00</time>
      </trkpt>
    </trkseg>
  </trk>
</gpx>